createdAt,value
2022-09-04T00:01:45.251Z,19.83
2022-09-04T00:04:25.610Z,19.82
2022-09-04T00:07:06.272Z,19.82
2022-09-04T00:09:44.448Z,19.76
2022-09-04T00:12:26.769Z,19.80
2022-09-04T00:15:04.006Z,19.75
2022-09-04T00:17:40.039Z,19.78
2022-09-04T00:20:14.021Z,19.77
2022-09-04T00:22:52.424Z,19.72
2022-09-04T00:25:29.538Z,19.76
2022-09-04T00:28:05.878Z,19.80
2022-09-04T00:30:41.860Z,19.72
2022-09-04T00:33:20.187Z,19.75
2022-09-04T00:35:55.248Z,19.76
2022-09-04T00:38:36.525Z,19.70
2022-09-04T00:41:16.442Z,19.72
2022-09-04T00:44:28.490Z,19.66
2022-09-04T00:47:27.992Z,19.63
2022-09-04T00:50:30.064Z,19.61
2022-09-04T00:53:40.544Z,19.54
2022-09-04T00:57:17.094Z,19.43
2022-09-04T01:00:08.762Z,19.52
2022-09-04T01:03:19.585Z,19.48
2022-09-04T01:06:29.502Z,19.45
2022-09-04T01:09:50.075Z,19.43
2022-09-04T01:12:33.479Z,19.45
2022-09-04T01:15:15.621Z,19.39
2022-09-04T01:18:05.087Z,19.33
2022-09-04T01:20:52.244Z,19.37
2022-09-04T01:24:00.269Z,19.30
2022-09-04T01:26:41.211Z,19.38
2022-09-04T01:29:25.502Z,19.45
2022-09-04T01:32:02.878Z,19.49
2022-09-04T01:34:43.319Z,19.47
2022-09-04T01:37:42.063Z,19.36
2022-09-04T01:40:35.197Z,19.36
2022-09-04T01:43:11.268Z,19.38
2022-09-04T01:46:07.053Z,19.42
2022-09-04T01:48:45.071Z,19.35
2022-09-04T01:51:25.358Z,19.28
2022-09-04T01:54:12.234Z,19.31
2022-09-04T01:56:49.950Z,19.31
2022-09-04T01:59:30.890Z,19.28
2022-09-04T02:02:13.408Z,19.27
2022-09-04T02:04:51.432Z,19.32
2022-09-04T02:07:29.583Z,19.26
2022-09-04T02:10:13.638Z,19.24
2022-09-04T02:12:50.966Z,19.23
2022-09-04T02:15:35.607Z,19.25
2022-09-04T02:18:14.613Z,19.14
2022-09-04T02:20:54.127Z,19.11
2022-09-04T02:23:32.772Z,19.14
2022-09-04T02:26:08.518Z,19.19
2022-09-04T02:28:54.255Z,19.13
2022-09-04T02:31:34.711Z,19.08
2022-09-04T02:34:09.801Z,19.03
2022-09-04T02:36:45.873Z,19.06
2022-09-04T02:39:34.597Z,19.08
2022-09-04T02:42:13.276Z,19.04
2022-09-04T02:44:52.807Z,18.98
2022-09-04T02:47:32.629Z,19.05
2022-09-04T02:50:12.252Z,19.02
2022-09-04T02:53:01.898Z,18.99
2022-09-04T02:55:46.624Z,18.91
2022-09-04T02:58:33.393Z,19.00
2022-09-04T03:01:11.107Z,18.93
2022-09-04T03:03:48.986Z,18.89
2022-09-04T03:06:23.772Z,18.88
2022-09-04T03:09:00.654Z,18.89
2022-09-04T03:11:36.818Z,18.84
2022-09-04T03:14:13.296Z,18.77
2022-09-04T03:16:46.450Z,18.71
2022-09-04T03:19:22.484Z,18.68
2022-09-04T03:21:58.275Z,18.75
2022-09-04T03:24:34.028Z,18.68
2022-09-04T03:27:06.180Z,18.69
2022-09-04T03:29:43.259Z,18.62
2022-09-04T03:32:21.976Z,18.62
2022-09-04T03:34:58.429Z,18.60
2022-09-04T03:37:41.614Z,18.57
2022-09-04T03:40:30.739Z,18.53
2022-09-04T03:43:41.271Z,18.46
2022-09-04T03:46:23.533Z,18.55
2022-09-04T03:49:13.105Z,18.55
2022-09-04T03:51:56.605Z,18.50
2022-09-04T03:54:43.239Z,18.44
2022-09-04T03:57:29.086Z,18.47
2022-09-04T04:00:13.239Z,18.50
2022-09-04T04:03:07.091Z,18.44
2022-09-04T04:05:56.039Z,18.44
2022-09-04T04:09:01.911Z,18.35
2022-09-04T04:11:55.059Z,18.30
2022-09-04T04:14:43.623Z,18.26
2022-09-04T04:17:44.433Z,18.24
2022-09-04T04:20:24.469Z,18.22
2022-09-04T04:23:22.917Z,18.17
2022-09-04T04:26:08.742Z,18.20
2022-09-04T04:29:08.581Z,18.19
2022-09-04T04:32:11.488Z,18.22
2022-09-04T04:34:53.955Z,18.27
2022-09-04T04:37:35.057Z,18.30
2022-09-04T04:40:13.249Z,18.24
2022-09-04T04:42:51.355Z,18.23
2022-09-04T04:46:01.101Z,18.24
2022-09-04T04:49:19.766Z,18.12
2022-09-04T04:52:17.838Z,18.17
2022-09-04T04:55:17.034Z,18.07
2022-09-04T04:58:20.910Z,18.03
2022-09-04T05:00:56.834Z,18.01
2022-09-04T05:03:35.052Z,18.03
2022-09-04T05:06:12.602Z,18.11
2022-09-04T05:08:48.767Z,18.08
2022-09-04T05:11:30.388Z,18.07
2022-09-04T05:14:15.008Z,18.13
2022-09-04T05:16:56.012Z,18.09
2022-09-04T05:19:33.880Z,18.11
2022-09-04T05:22:13.538Z,18.09
2022-09-04T05:24:55.639Z,18.07
2022-09-04T05:28:03.079Z,18.07
2022-09-04T05:30:47.489Z,18.11
2022-09-04T05:33:24.153Z,18.13
2022-09-04T05:36:02.559Z,18.13
2022-09-04T05:38:42.532Z,18.17
2022-09-04T05:41:27.516Z,18.11
2022-09-04T05:44:12.124Z,18.15
2022-09-04T05:46:57.493Z,18.24
2022-09-04T05:49:47.161Z,18.31
2022-09-04T05:52:36.621Z,18.28
2022-09-04T05:55:46.248Z,18.31
2022-09-04T05:58:34.097Z,18.43
2022-09-04T06:01:18.686Z,18.50
2022-09-04T06:04:12.301Z,18.46
2022-09-04T06:06:49.024Z,18.48
2022-09-04T06:09:32.862Z,18.51
2022-09-04T06:12:22.639Z,18.61
2022-09-04T06:15:14.879Z,18.66
2022-09-04T06:18:25.948Z,18.74
2022-09-04T06:21:14.685Z,18.85
2022-09-04T06:24:20.016Z,18.84
2022-09-04T06:27:23.535Z,18.88
2022-09-04T06:30:09.330Z,18.95
2022-09-04T06:33:09.937Z,18.99
2022-09-04T06:36:19.306Z,19.05
2022-09-04T06:39:11.856Z,19.14
2022-09-04T06:41:57.522Z,19.17
2022-09-04T06:44:47.203Z,19.28
2022-09-04T06:47:28.183Z,19.27
2022-09-04T06:50:16.006Z,19.38
2022-09-04T06:53:05.502Z,19.38
2022-09-04T06:55:44.541Z,19.43
2022-09-04T06:58:47.040Z,19.46
2022-09-04T07:01:22.166Z,19.57
2022-09-04T07:04:11.435Z,19.68
2022-09-04T07:06:57.204Z,19.74
2022-09-04T07:09:32.527Z,19.82
2022-09-04T07:12:37.709Z,19.82
2022-09-04T07:15:45.262Z,19.87
2022-09-04T07:18:35.048Z,19.98
2022-09-04T07:21:15.382Z,20.09
2022-09-04T07:23:57.788Z,20.15
2022-09-04T07:26:38.931Z,20.25
2022-09-04T07:29:32.644Z,20.36
2022-09-04T07:32:08.415Z,20.43
2022-09-04T07:34:48.675Z,20.48
2022-09-04T07:37:27.912Z,20.59
2022-09-04T07:40:09.049Z,20.61
2022-09-04T07:42:48.244Z,20.68
2022-09-04T07:45:32.322Z,20.81
2022-09-04T07:48:16.384Z,20.97
2022-09-04T07:51:04.887Z,21.07
2022-09-04T07:54:04.163Z,21.19
2022-09-04T07:56:54.573Z,21.30
2022-09-04T07:59:40.447Z,21.44
2022-09-04T08:02:30.207Z,21.54
2022-09-04T08:05:16.937Z,21.69
2022-09-04T08:08:15.219Z,21.76
2022-09-04T08:11:20.758Z,21.84
2022-09-04T08:14:12.987Z,21.89
2022-09-04T08:16:56.632Z,22.00
2022-09-04T08:19:47.089Z,22.08
2022-09-04T08:22:31.847Z,22.14
2022-09-04T08:25:17.836Z,22.23
2022-09-04T08:28:02.701Z,22.30
2022-09-04T08:30:40.852Z,22.28
2022-09-04T08:33:54.566Z,22.07
2022-09-04T08:36:31.605Z,22.11
2022-09-04T08:39:10.553Z,22.04
2022-09-04T08:42:31.419Z,22.20
2022-09-04T08:45:50.843Z,22.40
2022-09-04T08:49:12.574Z,22.53
2022-09-04T08:52:32.071Z,22.69
2022-09-04T08:55:27.591Z,22.73
2022-09-04T08:58:48.271Z,22.70
2022-09-04T09:02:01.475Z,22.81
2022-09-04T09:05:33.712Z,23.00
2022-09-04T09:09:03.964Z,23.30
2022-09-04T09:12:23.855Z,23.33
2022-09-04T09:15:50.256Z,23.27
2022-09-04T09:18:40.489Z,23.30
2022-09-04T09:21:22.043Z,23.30
2022-09-04T09:24:25.351Z,23.37
2022-09-04T09:27:12.013Z,23.39
2022-09-04T09:30:07.369Z,23.46
2022-09-04T09:33:35.382Z,23.37
2022-09-04T09:36:46.925Z,23.34
2022-09-04T09:40:08.854Z,23.43
2022-09-04T09:43:16.419Z,23.39
2022-09-04T09:46:28.818Z,23.44
2022-09-04T09:49:31.914Z,23.39
2022-09-04T09:53:05.608Z,23.40
2022-09-04T09:56:14.773Z,23.42
2022-09-04T09:59:33.719Z,23.52
2022-09-04T10:02:49.811Z,23.69
2022-09-04T10:05:56.388Z,23.82
2022-09-04T10:09:07.225Z,24.05
2022-09-04T10:12:12.896Z,24.40
2022-09-04T10:15:37.394Z,24.50
2022-09-04T10:19:11.405Z,24.42
2022-09-04T10:22:21.638Z,24.32
2022-09-04T10:25:39.618Z,24.27
2022-09-04T10:28:45.336Z,24.24
2022-09-04T10:31:38.698Z,24.26
2022-09-04T10:34:27.903Z,24.24
2022-09-04T10:37:11.245Z,24.25
2022-09-04T10:40:14.409Z,24.31
2022-09-04T10:43:09.604Z,24.24
2022-09-04T10:45:40.033Z,24.27
2022-09-04T10:48:37.045Z,24.21
2022-09-04T10:51:34.471Z,24.29
2022-09-04T10:54:44.984Z,24.25
2022-09-04T10:57:59.818Z,24.17
2022-09-04T11:00:38.733Z,24.21
2022-09-04T11:03:51.486Z,24.16
2022-09-04T11:06:47.419Z,24.18
2022-09-04T11:09:39.866Z,24.21
2022-09-04T11:12:52.229Z,24.10
2022-09-04T11:16:13.881Z,24.10
2022-09-04T11:19:20.902Z,24.15
2022-09-04T11:22:34.932Z,24.09
2022-09-04T11:26:05.724Z,24.09
2022-09-04T11:29:02.050Z,24.02
2022-09-04T11:32:04.693Z,24.01
2022-09-04T11:35:25.843Z,23.88
2022-09-04T11:38:17.372Z,23.90
2022-09-04T11:41:32.743Z,23.90
2022-09-04T11:45:00.565Z,23.78
2022-09-04T11:48:15.517Z,23.79
2022-09-04T11:51:40.490Z,23.79
2022-09-04T11:55:02.709Z,23.77
2022-09-04T11:57:41.568Z,23.82
2022-09-04T12:00:12.840Z,23.85
2022-09-04T12:03:31.989Z,23.84
2022-09-04T12:06:37.380Z,23.74
2022-09-04T12:09:51.608Z,23.67
2022-09-04T12:13:14.755Z,23.91
2022-09-04T12:16:33.027Z,23.92
2022-09-04T12:19:30.849Z,24.11
2022-09-04T12:22:51.715Z,24.13
2022-09-04T12:25:49.670Z,24.19
2022-09-04T12:29:18.097Z,24.25
2022-09-04T12:32:16.576Z,24.39
2022-09-04T12:35:32.064Z,24.44
2022-09-04T12:38:26.413Z,24.52
2022-09-04T12:41:06.260Z,24.73
2022-09-04T12:43:51.282Z,24.88
2022-09-04T12:46:48.696Z,24.88
2022-09-04T12:49:41.947Z,24.88
2022-09-04T12:52:27.757Z,25.10
2022-09-04T12:55:09.985Z,25.04
2022-09-04T12:57:49.609Z,25.04
2022-09-04T13:00:19.131Z,24.99
2022-09-04T13:03:10.461Z,25.02
2022-09-04T13:06:03.953Z,25.08
2022-09-04T13:08:53.441Z,25.15
2022-09-04T13:11:45.097Z,25.29
2022-09-04T13:14:48.775Z,25.38
2022-09-04T13:17:28.605Z,25.38
2022-09-04T13:20:14.195Z,25.36
2022-09-04T13:23:01.860Z,25.39
2022-09-04T13:25:48.443Z,25.46
2022-09-04T13:28:30.262Z,25.54
2022-09-04T13:31:44.584Z,25.42
2022-09-04T13:34:23.963Z,25.32
2022-09-04T13:37:07.631Z,25.27
2022-09-04T13:40:03.162Z,25.22
2022-09-04T13:43:33.199Z,25.10
2022-09-04T13:46:08.572Z,25.05
2022-09-04T13:48:43.026Z,25.02
2022-09-04T13:51:16.221Z,25.06
2022-09-04T13:54:01.229Z,25.07
2022-09-04T13:56:34.331Z,25.05
2022-09-04T13:59:10.426Z,25.09
2022-09-04T14:01:46.210Z,25.04
2022-09-04T14:04:26.470Z,25.05
2022-09-04T14:07:06.123Z,25.11
2022-09-04T14:09:43.781Z,25.08
2022-09-04T14:12:35.820Z,24.97
2022-09-04T14:15:38.249Z,24.97
2022-09-04T14:18:31.221Z,25.00
2022-09-04T14:21:05.416Z,25.00
2022-09-04T14:23:48.181Z,25.08
2022-09-04T14:26:30.001Z,25.17
2022-09-04T14:29:06.436Z,25.21
2022-09-04T14:31:46.659Z,25.44
2022-09-04T14:34:27.692Z,25.40
2022-09-04T14:37:07.958Z,25.41
2022-09-04T14:39:44.510Z,25.32
2022-09-04T14:42:41.525Z,25.35
2022-09-04T14:45:29.953Z,25.35
2022-09-04T14:48:03.648Z,25.37
2022-09-04T14:50:44.694Z,25.43
2022-09-04T14:53:20.859Z,25.45
2022-09-04T14:56:18.519Z,25.51
2022-09-04T14:58:52.280Z,25.50
2022-09-04T15:01:25.659Z,25.48
2022-09-04T15:04:05.983Z,25.52
2022-09-04T15:07:07.533Z,25.56
2022-09-04T15:09:38.488Z,25.55
2022-09-04T15:12:24.760Z,25.52
2022-09-04T15:15:04.318Z,25.52
2022-09-04T15:17:35.943Z,25.45
2022-09-04T15:20:09.106Z,25.54
2022-09-04T15:22:43.810Z,25.40
2022-09-04T15:25:57.220Z,25.24
2022-09-04T15:28:29.909Z,25.23
2022-09-04T15:31:17.014Z,25.15
2022-09-04T15:33:48.565Z,25.10
2022-09-04T15:36:23.608Z,25.16
2022-09-04T15:38:56.197Z,25.19
2022-09-04T15:41:38.651Z,25.15
2022-09-04T15:44:20.300Z,25.20
2022-09-04T15:46:59.678Z,25.17
2022-09-04T15:49:43.014Z,25.10
2022-09-04T15:52:28.085Z,25.10
2022-09-04T15:55:10.444Z,25.12
2022-09-04T15:58:05.165Z,25.11
2022-09-04T16:00:39.249Z,25.09
2022-09-04T16:03:16.274Z,25.08
2022-09-04T16:05:51.207Z,25.04
2022-09-04T16:08:28.026Z,25.05
2022-09-04T16:11:04.208Z,25.04
2022-09-04T16:13:46.221Z,25.01
2022-09-04T16:16:21.335Z,25.04
2022-09-04T16:19:13.143Z,25.03
2022-09-04T16:21:53.446Z,25.02
2022-09-04T16:24:36.399Z,25.01
2022-09-04T16:27:10.677Z,25.01
2022-09-04T16:29:45.713Z,24.98
2022-09-04T16:32:22.354Z,24.98
2022-09-04T16:34:55.279Z,24.97
2022-09-04T16:37:32.471Z,24.96
2022-09-04T16:40:27.434Z,24.90
2022-09-04T16:43:02.623Z,24.95
2022-09-04T16:45:37.293Z,24.95
2022-09-04T16:48:43.189Z,24.89
2022-09-04T16:51:39.131Z,24.82
2022-09-04T16:54:08.100Z,24.78
2022-09-04T16:56:43.456Z,24.77
2022-09-04T16:59:23.223Z,24.78
2022-09-04T17:02:00.271Z,24.77
2022-09-04T17:04:40.045Z,24.77
2022-09-04T17:07:20.212Z,24.72
2022-09-04T17:10:03.570Z,24.65
2022-09-04T17:12:52.535Z,24.65
2022-09-04T17:15:31.896Z,24.62
2022-09-04T17:18:06.099Z,24.67
2022-09-04T17:22:55.568Z,24.63
2022-09-04T17:29:16.011Z,24.52
2022-09-04T17:29:18.963Z,24.57
2022-09-04T17:29:38.278Z,24.55
2022-09-04T17:34:18.165Z,24.48
2022-09-04T17:40:37.400Z,24.45
2022-09-04T17:40:47.640Z,24.36
2022-09-04T17:41:35.802Z,24.38
2022-09-04T17:44:46.135Z,24.32
2022-09-04T17:47:28.468Z,24.35
2022-09-04T17:49:57.452Z,24.30
2022-09-04T17:52:32.537Z,24.29
2022-09-04T17:55:08.150Z,24.24
2022-09-04T17:57:54.978Z,24.17
2022-09-04T18:00:29.679Z,24.12
2022-09-04T18:03:05.177Z,24.08
2022-09-04T18:05:47.337Z,24.02
2022-09-04T18:08:32.505Z,23.96
2022-09-04T18:11:08.153Z,23.89
2022-09-04T18:13:43.457Z,23.84
2022-09-04T18:17:12.227Z,23.77
2022-09-04T18:19:46.037Z,23.69
2022-09-04T18:22:33.546Z,23.64
2022-09-04T18:25:15.750Z,23.55
2022-09-04T18:28:06.523Z,23.52
2022-09-04T18:37:11.648Z,23.41
2022-09-04T18:37:21.677Z,23.23
2022-09-04T18:37:25.651Z,23.31
2022-09-04T18:39:51.897Z,23.13
2022-09-04T18:50:24.435Z,23.11
2022-09-04T18:50:32.727Z,22.98
2022-09-04T18:50:49.493Z,23.03
2022-09-04T18:51:21.942Z,22.91
2022-09-04T18:53:55.849Z,22.84
2022-09-04T18:56:28.546Z,22.78
2022-09-04T18:59:07.832Z,22.78
2022-09-04T19:01:45.526Z,22.70
2022-09-04T19:04:46.707Z,22.59
2022-09-04T19:07:31.762Z,22.62
2022-09-04T19:10:09.251Z,22.56
2022-09-04T19:12:55.967Z,22.52
2022-09-04T19:15:50.732Z,22.46
2022-09-04T19:18:27.429Z,22.39
2022-09-04T19:21:16.119Z,22.36
2022-09-04T19:23:51.919Z,22.31
2022-09-04T19:26:31.663Z,22.21
2022-09-04T19:29:10.396Z,22.21
2022-09-04T19:31:45.282Z,22.13
2022-09-04T19:34:20.531Z,22.08
2022-09-04T19:36:55.139Z,22.01
2022-09-04T19:46:02.490Z,21.92
2022-09-04T19:46:02.729Z,21.96
2022-09-04T19:46:15.954Z,21.85
2022-09-04T19:48:37.563Z,21.74
2022-09-04T19:53:24.517Z,21.74
2022-09-04T19:54:30.034Z,21.66
2022-09-04T19:57:31.986Z,21.52
2022-09-04T20:00:31.063Z,21.56
2022-09-04T20:03:02.526Z,21.58
2022-09-04T20:05:34.038Z,21.63
2022-09-04T20:08:15.418Z,21.62
2022-09-04T20:10:48.595Z,21.60
2022-09-04T20:13:27.172Z,21.52
2022-09-04T20:16:03.463Z,21.42
2022-09-04T20:18:39.581Z,21.40
2022-09-04T20:21:15.625Z,21.32
2022-09-04T20:23:49.628Z,21.26
2022-09-04T20:26:25.479Z,21.28
2022-09-04T20:29:08.111Z,21.25
2022-09-04T20:31:49.286Z,21.19
2022-09-04T20:34:30.286Z,21.20
2022-09-04T20:37:25.858Z,21.07
2022-09-04T20:40:06.166Z,21.02
2022-09-04T20:42:42.180Z,20.99
2022-09-04T20:48:49.718Z,20.96
2022-09-04T20:52:57.422Z,20.86
2022-09-04T20:52:59.846Z,20.83
2022-09-04T20:54:33.742Z,20.90
2022-09-04T21:00:48.166Z,20.92
2022-09-04T21:03:11.778Z,20.83
2022-09-04T21:03:27.872Z,20.82
2022-09-04T21:06:17.393Z,20.80
2022-09-04T21:08:57.910Z,20.77
2022-09-04T21:11:40.336Z,20.76
2022-09-04T21:14:19.672Z,20.73
2022-09-04T21:17:34.677Z,20.64
2022-09-04T21:20:34.433Z,20.59
2022-09-04T21:23:46.377Z,20.63
2022-09-04T21:27:00.994Z,20.58
2022-09-04T21:30:06.590Z,20.50
2022-09-04T21:33:26.747Z,20.51
2022-09-04T21:36:26.380Z,20.42
2022-09-04T21:39:34.144Z,20.32
2022-09-04T21:42:43.004Z,20.28
2022-09-04T21:45:36.634Z,20.25
2022-09-04T21:48:45.806Z,20.24
2022-09-04T21:51:44.763Z,20.25
2022-09-04T21:57:00.094Z,20.29
2022-09-04T22:02:27.274Z,20.20
2022-09-04T22:02:48.050Z,20.18
2022-09-04T22:04:35.346Z,20.13
2022-09-04T22:10:19.559Z,20.14
2022-09-04T22:13:31.928Z,20.10
2022-09-04T22:13:48.159Z,20.04
2022-09-04T22:16:33.581Z,20.06
2022-09-04T22:19:26.467Z,20.05
2022-09-04T22:22:09.039Z,20.07
2022-09-04T22:25:18.533Z,20.01
2022-09-04T22:28:17.027Z,20.02
2022-09-04T22:31:22.412Z,19.97
2022-09-04T22:34:46.815Z,19.89
2022-09-04T22:37:54.861Z,19.86
2022-09-04T22:40:56.818Z,19.84
2022-09-04T22:43:27.547Z,19.83
2022-09-04T22:46:36.913Z,19.76
2022-09-04T22:49:32.887Z,19.76
2022-09-04T22:52:49.821Z,19.74
2022-09-04T22:56:22.951Z,19.70
2022-09-04T22:59:25.892Z,19.68
2022-09-04T23:02:20.852Z,19.69
2022-09-04T23:05:16.919Z,19.69
2022-09-04T23:13:49.171Z,19.67
2022-09-04T23:13:58.274Z,19.70
2022-09-04T23:14:34.770Z,19.65
2022-09-04T23:17:28.269Z,19.56
2022-09-04T23:26:38.457Z,19.45
2022-09-04T23:26:48.844Z,19.47
2022-09-04T23:27:28.862Z,19.52
2022-09-04T23:30:25.762Z,19.51
2022-09-04T23:33:42.998Z,19.48
2022-09-04T23:37:02.340Z,19.44
2022-09-04T23:40:03.481Z,19.42
2022-09-04T23:43:03.647Z,19.48
2022-09-04T23:46:33.599Z,19.40
2022-09-04T23:49:35.582Z,19.52
2022-09-04T23:52:15.940Z,19.49
2022-09-04T23:55:06.926Z,19.46
2022-09-04T23:57:49.379Z,19.52
